createdAt,value
2023-01-23T06:50:14.246Z,-0.10
2023-01-23T06:53:18.798Z,0.10
2023-01-23T06:56:20.602Z,0.40
2023-01-23T06:59:22.518Z,0.60
2023-01-23T07:02:24.360Z,0.70
2023-01-23T07:05:26.155Z,0.80
2023-01-23T07:08:28.694Z,0.80
2023-01-23T07:11:31.092Z,0.80
2023-01-23T07:14:33.015Z,0.80
2023-01-23T07:17:35.027Z,0.80
2023-01-23T07:20:38.346Z,0.80
2023-01-23T07:23:40.571Z,0.80
2023-01-23T07:26:42.421Z,0.90
2023-01-23T07:29:45.037Z,0.80
2023-01-23T07:32:46.853Z,0.80
2023-01-23T07:35:50.088Z,0.80
2023-01-23T07:38:51.937Z,0.90
2023-01-23T07:41:53.913Z,0.90
2023-01-23T07:44:55.809Z,0.80
2023-01-23T07:47:57.508Z,0.90
2023-01-23T07:51:03.260Z,1.00
2023-01-23T07:54:05.921Z,1.00
2023-01-23T07:57:07.817Z,1.00
2023-01-23T08:00:11.031Z,0.80
2023-01-23T08:03:13.249Z,0.90
2023-01-23T08:06:15.546Z,0.80
2023-01-23T08:09:17.396Z,0.90
2023-01-23T08:12:19.869Z,1.00
2023-01-23T08:15:21.744Z,1.20
2023-01-23T08:18:23.930Z,1.10
2023-01-23T08:21:25.727Z,1.10
2023-01-23T08:24:27.539Z,1.00
2023-01-23T08:27:30.312Z,1.00
2023-01-23T08:30:32.199Z,1.00
2023-01-23T08:33:34.491Z,1.10
2023-01-23T08:36:36.438Z,1.20
2023-01-23T08:39:38.246Z,1.20
2023-01-23T08:42:40.188Z,1.10
2023-01-23T08:45:45.807Z,1.20
2023-01-23T08:48:47.941Z,1.30
2023-01-23T08:51:49.795Z,1.50
2023-01-23T08:54:51.833Z,1.40
2023-01-23T08:57:54.717Z,1.30
2023-01-23T09:00:57.472Z,1.30
2023-01-23T09:03:59.715Z,1.30
2023-01-23T09:07:01.818Z,1.40
2023-01-23T09:10:06.132Z,1.50
2023-01-23T09:13:09.433Z,1.50
2023-01-23T09:16:13.302Z,1.50
2023-01-23T09:19:15.935Z,1.40
2023-01-23T09:22:18.613Z,1.50
2023-01-23T09:25:20.891Z,1.60
2023-01-23T09:28:23.153Z,1.60
2023-01-23T09:31:25.461Z,1.50
2023-01-23T09:34:28.790Z,1.60
2023-01-23T09:37:58.453Z,1.70
2023-01-23T09:41:09.850Z,1.70
2023-01-23T09:44:19.303Z,1.90
2023-01-23T09:47:31.913Z,1.90
2023-01-23T09:50:38.169Z,2.00
2023-01-23T09:53:42.575Z,1.90
2023-01-23T09:56:47.351Z,2.00
2023-01-23T10:00:01.196Z,2.20
2023-01-23T10:03:12.281Z,2.00
2023-01-23T10:06:47.733Z,1.80
2023-01-23T10:10:29.728Z,1.60
2023-01-23T10:13:55.847Z,1.60
2023-01-23T10:17:14.094Z,1.50
2023-01-23T10:20:42.526Z,1.40
2023-01-23T10:23:57.902Z,1.40
2023-01-23T10:27:03.779Z,1.50
2023-01-23T10:30:19.179Z,1.50
2023-01-23T10:33:25.101Z,1.40
2023-01-23T10:36:47.604Z,1.40
2023-01-23T10:40:05.374Z,1.40
2023-01-23T10:43:16.668Z,1.30
2023-01-23T10:46:23.723Z,1.40
2023-01-23T10:49:35.297Z,1.50
2023-01-23T10:52:43.023Z,1.60
2023-01-23T10:55:46.816Z,1.60
2023-01-23T10:58:49.589Z,1.60
2023-01-23T11:02:24.168Z,1.70
2023-01-23T11:05:52.558Z,1.60
2023-01-23T11:09:00.745Z,1.80
2023-01-23T11:12:05.781Z,1.80
2023-01-23T11:15:13.272Z,1.70
2023-01-23T11:18:39.130Z,1.90
2023-01-23T11:21:58.680Z,2.00
2023-01-23T11:25:02.738Z,2.00
2023-01-23T11:28:41.465Z,2.00
2023-01-23T11:31:43.461Z,2.10
2023-01-23T11:34:50.928Z,2.00
2023-01-23T11:37:55.946Z,2.00
2023-01-23T11:41:01.612Z,2.20
2023-01-23T11:44:07.847Z,2.00
2023-01-23T11:47:37.280Z,2.10
2023-01-23T11:50:56.207Z,2.20
2023-01-23T11:54:41.465Z,2.30
2023-01-23T11:58:06.681Z,2.10
2023-01-23T12:01:49.327Z,2.20
2023-01-23T12:05:22.503Z,2.40
2023-01-23T12:09:04.672Z,2.50
2023-01-23T12:12:27.475Z,2.30
2023-01-23T12:15:40.918Z,2.10
2023-01-23T12:19:11.241Z,1.90
2023-01-23T12:22:21.652Z,2.10
2023-01-23T12:25:42.673Z,2.20
2023-01-23T12:29:04.645Z,2.20
2023-01-23T12:32:33.953Z,2.30
2023-01-23T12:36:05.653Z,2.40
2023-01-23T12:39:23.157Z,2.70
2023-01-23T12:42:34.638Z,2.50
2023-01-23T12:45:40.265Z,2.40
2023-01-23T12:48:55.754Z,2.40
2023-01-23T12:52:06.265Z,2.30
2023-01-23T12:55:18.361Z,2.50
2023-01-23T12:58:20.891Z,2.40
2023-01-23T13:01:40.120Z,2.40
2023-01-23T13:05:11.995Z,2.40
2023-01-23T13:08:43.548Z,2.40
2023-01-23T13:12:11.555Z,2.80
2023-01-23T13:15:19.101Z,2.80
2023-01-23T13:18:28.274Z,2.60
2023-01-23T13:21:50.200Z,2.60
2023-01-23T13:25:17.664Z,2.80
2023-01-23T13:28:44.706Z,2.70
2023-01-23T13:31:50.510Z,2.80
2023-01-23T13:34:52.433Z,2.70
2023-01-23T13:37:54.533Z,2.80
2023-01-23T13:41:04.623Z,2.60
2023-01-23T13:44:40.182Z,2.50
2023-01-23T14:26:04.654Z,2.40
2023-01-23T14:29:22.258Z,2.30
2023-01-23T14:32:25.378Z,2.40
2023-01-23T14:35:31.263Z,2.60
2023-01-23T14:38:34.442Z,2.70
2023-01-23T14:41:41.616Z,2.70
2023-01-23T14:44:46.948Z,2.60
2023-01-23T14:47:59.680Z,2.40
2023-01-23T14:51:19.649Z,2.40
2023-01-23T14:54:23.322Z,2.40
2023-01-23T14:57:27.029Z,2.50
2023-01-23T15:00:29.377Z,2.60
2023-01-23T15:04:00.227Z,2.50
2023-01-23T15:07:02.693Z,2.50
2023-01-23T15:10:05.105Z,2.50
2023-01-23T15:13:13.359Z,2.40
2023-01-23T15:16:20.514Z,2.40
2023-01-23T15:19:24.274Z,2.50
2023-01-23T15:22:28.967Z,2.40
2023-01-23T15:25:33.625Z,2.30
2023-01-23T15:28:40.982Z,2.30
2023-01-23T15:31:46.509Z,2.20
2023-01-23T15:34:57.692Z,2.10
2023-01-23T15:38:04.760Z,2.00
2023-01-23T15:41:10.719Z,1.90
2023-01-23T15:44:16.584Z,2.00
2023-01-23T15:47:18.342Z,2.00
2023-01-23T15:50:21.728Z,2.00
2023-01-23T15:53:23.407Z,2.00
2023-01-23T15:56:29.361Z,1.90
2023-01-23T15:59:33.987Z,1.80
2023-01-23T16:02:39.407Z,1.90
2023-01-23T16:05:46.032Z,1.80
2023-01-23T16:08:55.063Z,1.90
2023-01-23T16:12:02.972Z,1.90
2023-01-23T16:15:14.297Z,2.00
2023-01-23T16:18:16.123Z,2.00
2023-01-23T16:21:20.785Z,2.00
2023-01-23T16:24:24.055Z,1.80
2023-01-23T16:27:27.683Z,1.80
2023-01-23T16:30:29.662Z,1.90
2023-01-23T16:33:31.483Z,1.90
2023-01-23T16:36:33.169Z,1.90
2023-01-23T16:39:35.046Z,1.90
2023-01-23T16:42:36.903Z,1.90
2023-01-23T16:45:38.690Z,1.80
2023-01-23T16:48:40.408Z,1.90
2023-01-23T16:51:48.722Z,1.90
2023-01-23T16:54:52.908Z,1.90
2023-01-23T16:57:56.615Z,1.90
